Time;durP1;ratioP1;P1;durP2;ratioP2;P2;SDS_P1;SDS_P2;PMS_P1;PMS_P2;Temp;Humidity;BMP_temperature;BMP_pressure;BME280_temperature;BME280_humidity;BME280_pressure;Samples;Min_cycle;Max_cycle;Signal;HPM_P1;HPM_P2
2023/08/22 00:02:38;;;;;;;14.60;11.43;;;19.10;99.90;;;;;;4455957;27;659901;-69
2023/08/22 00:05:26;;;;;;;13.43;11.30;;;19.00;99.90;;;;;;4460994;27;661098;-69
2023/08/22 00:08:13;;;;;;;19.03;11.60;;;18.90;99.90;;;;;;4439411;27;659604;-69
2023/08/22 00:11:01;;;;;;;14.27;11.53;;;18.90;99.90;;;;;;4450429;27;659664;-69
2023/08/22 00:13:48;;;;;;;15.40;11.17;;;18.90;99.90;;;;;;4439855;27;659628;-69
2023/08/22 00:16:35;;;;;;;14.67;11.17;;;18.90;99.90;;;;;;4461878;27;660872;-69
2023/08/22 00:19:22;;;;;;;18.53;11.20;;;19.00;99.90;;;;;;4437332;27;659631;-69
2023/08/22 00:22:11;;;;;;;13.90;10.73;;;19.00;99.90;;;;;;4462229;27;661330;-69
2023/08/22 00:24:59;;;;;;;14.23;11.10;;;19.00;99.90;;;;;;4435705;27;659705;-69
2023/08/22 00:27:46;;;;;;;17.63;11.60;;;18.90;99.90;;;;;;4459836;27;659287;-69
2023/08/22 00:30:33;;;;;;;12.87;10.87;;;19.00;99.90;;;;;;4441111;27;663160;-69
2023/08/22 00:33:20;;;;;;;13.90;11.00;;;19.00;99.90;;;;;;4461931;27;659944;-69
2023/08/22 00:36:08;;;;;;;16.03;11.27;;;19.00;99.90;;;;;;4441374;27;659910;-69
2023/08/22 00:38:56;;;;;;;16.03;10.77;;;18.90;99.90;;;;;;4463219;27;660214;-69
2023/08/22 00:41:44;;;;;;;17.53;11.33;;;18.90;99.90;;;;;;4436463;27;659776;-69
2023/08/22 00:44:31;;;;;;;14.63;10.80;;;18.90;99.90;;;;;;4459526;27;659304;-69
2023/08/22 00:47:18;;;;;;;16.40;11.23;;;18.90;99.90;;;;;;4438600;27;659698;-69
2023/08/22 00:50:06;;;;;;;19.50;11.27;;;18.80;99.90;;;;;;4461208;27;660180;-69
2023/08/22 00:52:53;;;;;;;14.70;11.23;;;18.70;99.90;;;;;;4438650;27;660546;-69
2023/08/22 00:55:42;;;;;;;15.50;11.00;;;18.70;99.90;;;;;;4458562;27;661026;-69
2023/08/22 00:58:29;;;;;;;19.67;11.23;;;18.80;99.90;;;;;;4433078;27;661145;-69
2023/08/22 01:01:16;;;;;;;17.58;10.43;;;18.60;99.90;;;;;;4451870;28;659427;-69
2023/08/22 01:04:04;;;;;;;16.40;11.03;;;18.60;99.90;;;;;;4435384;27;660864;-69
2023/08/22 01:06:54;;;;;;;13.63;10.73;;;18.60;99.90;;;;;;4454803;27;659586;-69
2023/08/22 01:09:44;;;;;;;11.70;9.63;;;18.60;99.90;;;;;;4430659;27;660440;-69
2023/08/22 01:12:35;;;;;;;12.40;9.93;;;18.60;99.90;;;;;;4430913;27;658332;-69
2023/08/22 01:15:24;;;;;;;12.70;9.53;;;18.60;99.90;;;;;;4455589;27;658960;-69
2023/08/22 01:18:14;;;;;;;15.20;9.27;;;18.50;99.90;;;;;;4461254;27;659589;-69
2023/08/22 01:21:05;;;;;;;12.68;8.88;;;18.50;99.90;;;;;;4432391;27;658929;-69
2023/08/22 01:23:54;;;;;;;13.33;9.33;;;18.40;99.90;;;;;;4453871;27;658676;-69
2023/08/22 01:26:41;;;;;;;12.23;8.47;;;18.40;99.90;;;;;;4458742;27;658718;-69
2023/08/22 01:29:31;;;;;;;12.60;9.17;;;18.30;99.90;;;;;;4435824;27;659108;-69
2023/08/22 01:32:21;;;;;;;13.63;8.80;;;18.20;99.90;;;;;;4437550;27;659145;-69
2023/08/22 01:35:08;;;;;;;17.83;8.83;;;18.10;99.90;;;;;;4434913;27;658788;-69
2023/08/22 01:37:55;;;;;;;9.57;7.97;;;18.00;99.90;;;;;;4457359;27;660040;-70
2023/08/22 01:40:44;;;;;;;11.87;8.53;;;18.00;99.90;;;;;;4439907;27;657346;-69
2023/08/22 01:43:33;;;;;;;13.20;8.53;;;18.00;99.90;;;;;;4454561;27;658644;-70
2023/08/22 01:46:20;;;;;;;12.37;8.60;;;18.00;99.90;;;;;;4437631;27;659971;-70
2023/08/22 01:49:08;;;;;;;16.67;8.83;;;18.00;99.90;;;;;;4441169;27;659058;-69
2023/08/22 01:51:55;;;;;;;10.47;6.97;;;17.90;99.90;;;;;;4460845;27;659797;-70
2023/08/22 01:54:44;;;;;;;8.67;6.67;;;17.80;99.90;;;;;;4441294;27;658928;-70
2023/08/22 01:57:32;;;;;;;13.77;6.47;;;17.80;99.90;;;;;;4461050;27;657790;-70
2023/08/22 02:00:20;;;;;;;8.77;6.60;;;17.70;99.90;;;;;;4439800;27;659765;-70
2023/08/22 02:03:08;;;;;;;14.53;7.20;;;17.70;99.90;;;;;;4459327;27;657996;-69
2023/08/22 02:05:55;;;;;;;11.20;6.30;;;17.70;99.90;;;;;;4459261;27;659289;-70
2023/08/22 02:08:42;;;;;;;12.30;6.83;;;17.60;99.90;;;;;;4448331;27;658861;-69
2023/08/22 02:11:30;;;;;;;11.77;7.03;;;17.70;99.90;;;;;;4458797;27;660211;-70
2023/08/22 02:14:19;;;;;;;12.47;7.87;;;17.70;99.90;;;;;;4457936;27;658556;-69
2023/08/22 02:17:06;;;;;;;11.97;6.90;;;17.60;99.90;;;;;;4459611;27;658824;-70
2023/08/22 02:19:53;;;;;;;10.10;7.03;;;17.60;99.90;;;;;;4434059;27;658782;-70
2023/08/22 02:22:40;;;;;;;9.17;6.23;;;17.50;99.90;;;;;;4459738;27;659704;-70
2023/08/22 02:25:28;;;;;;;8.27;5.93;;;17.30;99.90;;;;;;4442188;27;658184;-69
2023/08/22 02:28:15;;;;;;;14.23;6.50;;;17.20;99.90;;;;;;4464613;27;659078;-70
2023/08/22 02:31:04;;;;;;;10.77;7.03;;;17.20;99.90;;;;;;4457395;27;658275;-69
2023/08/22 02:33:51;;;;;;;9.77;6.23;;;17.30;99.90;;;;;;4460263;27;658604;-70
2023/08/22 02:36:39;;;;;;;12.30;6.57;;;17.20;99.90;;;;;;4436512;27;657295;-69
2023/08/22 02:39:26;;;;;;;10.50;6.20;;;17.30;99.90;;;;;;4455911;27;658674;-70
2023/08/22 02:42:13;;;;;;;10.00;6.40;;;17.40;99.90;;;;;;4440584;27;658526;-70
2023/08/22 02:45:00;;;;;;;10.17;6.63;;;17.40;99.90;;;;;;4460302;28;659849;-69
2023/08/22 02:47:49;;;;;;;9.40;6.80;;;17.40;99.90;;;;;;4441127;27;660086;-69
2023/08/22 02:50:36;;;;;;;8.37;6.20;;;17.30;99.90;;;;;;4452401;27;657901;-70
2023/08/22 02:53:24;;;;;;;9.87;6.27;;;17.40;99.90;;;;;;4438548;27;657870;-70
2023/08/22 02:56:12;;;;;;;14.53;6.60;;;17.30;99.90;;;;;;4456247;27;658390;-70
2023/08/22 02:58:59;;;;;;;8.00;5.90;;;17.30;99.90;;;;;;4439337;28;660676;-70
2023/08/22 03:01:46;;;;;;;8.07;6.47;;;17.30;99.90;;;;;;4463681;28;657769;-70
2023/08/22 03:04:37;;;;;;;11.20;6.47;;;17.40;99.90;;;;;;4418804;28;657460;-69
2023/08/22 03:07:24;;;;;;;10.47;6.13;;;17.40;99.90;;;;;;4416366;28;658649;-69
2023/08/22 03:10:12;;;;;;;12.60;6.40;;;17.40;99.90;;;;;;4438563;28;658718;-70
2023/08/22 03:12:59;;;;;;;8.00;5.90;;;17.20;99.90;;;;;;4432322;28;659357;-69
2023/08/22 03:15:46;;;;;;;9.20;5.80;;;17.10;99.90;;;;;;4441013;28;657566;-70
2023/08/22 03:18:34;;;;;;;11.00;5.77;;;17.20;99.90;;;;;;4421088;28;657469;-69
2023/08/22 03:21:23;;;;;;;11.20;5.90;;;17.20;99.90;;;;;;4441298;28;658448;-69
2023/08/22 03:24:10;;;;;;;8.20;5.23;;;17.30;99.90;;;;;;4417111;28;659147;-70
2023/08/22 03:26:57;;;;;;;10.17;5.13;;;17.30;99.90;;;;;;4431065;28;658060;-69
2023/08/22 03:29:45;;;;;;;11.13;5.17;;;17.30;99.90;;;;;;4437604;28;660452;-70
2023/08/22 03:32:32;;;;;;;7.10;4.80;;;17.30;99.90;;;;;;4435158;28;658333;-69
2023/08/22 03:35:19;;;;;;;6.70;4.80;;;17.30;99.90;;;;;;4417899;28;658364;-69
2023/08/22 03:38:08;;;;;;;9.80;5.40;;;17.20;99.90;;;;;;4456491;28;658082;-70
2023/08/22 03:40:55;;;;;;;7.50;5.03;;;17.20;99.90;;;;;;4429128;28;658588;-69
2023/08/22 03:43:43;;;;;;;7.77;4.90;;;17.20;99.90;;;;;;4418990;28;657674;-69
2023/08/22 03:46:30;;;;;;;9.93;4.57;;;17.20;99.90;;;;;;4429407;28;658832;-69
2023/08/22 03:49:17;;;;;;;10.43;4.50;;;17.10;99.90;;;;;;4436613;28;658253;-69
2023/08/22 03:52:05;;;;;;;5.83;4.70;;;17.10;99.90;;;;;;4442520;28;658714;-69
2023/08/22 03:54:54;;;;;;;8.43;5.00;;;17.10;99.90;;;;;;4423691;28;657539;-69
2023/08/22 03:57:41;;;;;;;9.27;4.90;;;17.10;99.90;;;;;;4443496;28;657791;-70
2023/08/22 04:00:29;;;;;;;8.20;4.47;;;17.20;99.90;;;;;;4423005;28;657800;-69
2023/08/22 04:03:16;;;;;;;7.70;4.50;;;17.30;99.90;;;;;;4450027;28;657023;-69
2023/08/22 04:06:04;;;;;;;7.93;5.37;;;17.30;99.90;;;;;;4446976;27;657696;-69
2023/08/22 04:08:52;;;;;;;7.00;4.70;;;17.30;99.90;;;;;;4450118;27;657780;-70
2023/08/22 04:11:43;;;;;;;6.07;4.67;;;17.30;99.90;;;;;;4423062;28;657448;-69
2023/08/22 04:14:30;;;;;;;10.77;5.20;;;17.30;99.90;;;;;;4417368;28;657807;-69
2023/08/22 04:17:18;;;;;;;10.60;5.00;;;17.40;99.90;;;;;;4434399;28;659203;-70
2023/08/22 04:20:06;;;;;;;5.57;4.67;;;17.40;99.90;;;;;;4438307;28;660722;-70
2023/08/22 04:22:54;;;;;;;11.93;5.23;;;17.30;99.90;;;;;;4421588;28;657818;-69
2023/08/22 04:25:41;;;;;;;7.27;5.03;;;17.30;99.90;;;;;;4440809;28;659324;-69
2023/08/22 04:28:29;;;;;;;9.43;5.20;;;17.50;99.90;;;;;;4428773;28;658056;-69
2023/08/22 04:31:17;;;;;;;6.93;4.83;;;17.60;99.90;;;;;;4455220;27;658400;-70
2023/08/22 04:34:04;;;;;;;12.10;4.90;;;17.60;99.90;;;;;;4431065;28;658121;-69
2023/08/22 04:36:51;;;;;;;5.53;4.50;;;17.70;99.90;;;;;;4436620;28;659254;-69
2023/08/22 04:39:38;;;;;;;9.33;4.93;;;17.80;99.90;;;;;;4419290;28;657651;-69
2023/08/22 04:42:25;;;;;;;6.13;4.60;;;17.80;99.90;;;;;;4444927;28;658998;-70
2023/08/22 04:45:14;;;;;;;10.70;5.27;;;17.80;99.90;;;;;;4418008;28;657814;-70
2023/08/22 04:48:01;;;;;;;6.67;4.33;;;17.90;99.90;;;;;;4453684;28;661643;-70
2023/08/22 04:50:49;;;;;;;7.30;4.53;;;18.00;99.90;;;;;;4424593;28;657686;-70
2023/08/22 04:53:36;;;;;;;7.03;5.37;;;18.00;99.90;;;;;;4443484;28;657117;-69
2023/08/22 04:56:23;;;;;;;10.83;4.90;;;18.00;99.90;;;;;;4421519;28;657410;-69
2023/08/22 04:59:11;;;;;;;12.60;5.03;;;18.20;99.90;;;;;;4442071;27;660557;-69
2023/08/22 05:01:59;;;;;;;5.83;4.70;;;18.30;99.90;;;;;;4431463;27;658816;-69
2023/08/22 05:04:47;;;;;;;9.77;4.90;;;18.40;99.90;;;;;;4460381;27;658749;-69
2023/08/22 05:07:34;;;;;;;6.73;4.50;;;18.50;99.90;;;;;;4439051;27;657874;-69
2023/08/22 05:10:22;;;;;;;12.97;4.97;;;18.70;99.90;;;;;;4459269;27;657935;-69
2023/08/22 05:13:09;;;;;;;9.43;5.20;;;18.80;99.90;;;;;;4434977;27;659231;-69
2023/08/22 05:15:56;;;;;;;6.97;4.67;;;18.90;99.90;;;;;;4461013;27;657773;-69
2023/08/22 05:18:45;;;;;;;7.77;5.13;;;19.00;99.90;;;;;;4441286;27;658220;-69
2023/08/22 05:21:32;;;;;;;6.23;4.23;;;19.20;99.90;;;;;;4442140;27;658058;-69
2023/08/22 05:24:20;;;;;;;5.63;3.90;;;19.30;99.90;;;;;;4456761;27;659297;-69
2023/08/22 05:27:07;;;;;;;11.03;4.03;;;19.40;99.90;;;;;;4452731;27;657304;-69
2023/08/22 05:29:55;;;;;;;5.70;4.23;;;19.60;99.90;;;;;;4459038;27;660257;-69
2023/08/22 05:32:42;;;;;;;5.20;4.07;;;19.70;99.90;;;;;;4459313;28;657543;-69
2023/08/22 05:35:30;;;;;;;6.13;4.60;;;19.80;99.90;;;;;;4439586;27;657356;-69
2023/08/22 05:38:17;;;;;;;9.20;4.10;;;19.90;99.90;;;;;;4438063;27;658483;-69
2023/08/22 05:41:05;;;;;;;8.77;4.33;;;20.00;99.90;;;;;;4459706;27;658835;-69
2023/08/22 05:43:52;;;;;;;6.20;4.43;;;20.10;99.90;;;;;;4457421;27;657805;-67
2023/08/22 05:46:40;;;;;;;7.90;4.63;;;20.00;99.90;;;;;;4462377;27;658371;-67
2023/08/22 05:49:27;;;;;;;9.77;4.73;;;20.10;99.90;;;;;;4453127;27;657247;-67
2023/08/22 05:52:15;;;;;;;6.37;4.80;;;20.30;99.90;;;;;;4435236;27;658704;-67
2023/08/22 05:55:03;;;;;;;16.03;4.87;;;20.50;99.90;;;;;;4439379;27;657279;-67
2023/08/22 05:57:50;;;;;;;5.67;4.57;;;20.70;99.90;;;;;;4463558;27;659441;-67
2023/08/22 06:00:38;;;;;;;6.83;4.10;;;20.90;99.90;;;;;;4445451;27;657898;-67
2023/08/22 06:03:25;;;;;;;8.83;4.60;;;21.00;99.90;;;;;;4453516;27;657693;-68
2023/08/22 06:06:12;;;;;;;6.50;4.40;;;21.20;99.90;;;;;;4449784;27;658074;-68
2023/08/22 06:09:01;;;;;;;6.57;4.23;;;21.40;99.90;;;;;;4458959;27;658361;-67
2023/08/22 06:11:48;;;;;;;5.43;3.53;;;21.60;99.90;;;;;;4443127;27;657453;-66
2023/08/22 06:14:35;;;;;;;6.63;4.50;;;21.90;99.90;;;;;;4461044;28;658900;-67
2023/08/22 06:17:23;;;;;;;5.73;3.87;;;22.10;99.90;;;;;;4438280;27;657714;-68
2023/08/22 06:20:10;;;;;;;6.13;3.57;;;22.40;99.90;;;;;;4463488;27;658446;-67
2023/08/22 06:22:58;;;;;;;6.73;3.63;;;22.60;99.90;;;;;;4431335;27;657659;-68
2023/08/22 06:25:48;;;;;;;9.20;3.80;;;22.70;99.90;;;;;;4459602;27;659165;-67
2023/08/22 06:28:36;;;;;;;7.07;4.50;;;22.80;99.90;;;;;;4434357;27;658124;-67
2023/08/22 06:31:23;;;;;;;5.87;3.80;;;22.80;99.90;;;;;;4439438;27;657588;-69
2023/08/22 06:34:10;;;;;;;6.57;4.07;;;22.70;99.90;;;;;;4463353;27;657906;-67
2023/08/22 06:36:58;;;;;;;8.13;4.65;;;22.90;99.90;;;;;;4439787;28;657679;-67
2023/08/22 06:39:45;;;;;;;9.07;4.77;;;23.10;99.90;;;;;;4461868;27;659119;-67
2023/08/22 06:42:34;;;;;;;15.43;5.75;;;23.30;99.90;;;;;;4455839;27;657585;-67
2023/08/22 06:45:21;;;;;;;11.15;5.95;;;23.50;99.90;;;;;;4457656;27;658476;-67
2023/08/22 06:48:08;;;;;;;11.60;6.00;;;23.50;99.90;;;;;;4436065;27;659079;-67
2023/08/22 06:50:56;;;;;;;14.10;6.00;;;23.50;99.90;;;;;;4468503;27;659145;-67
2023/08/22 06:53:43;;;;;;;8.27;5.20;;;23.60;99.90;;;;;;4447680;27;658819;-66
2023/08/22 06:56:30;;;;;;;17.98;6.95;;;23.80;99.90;;;;;;4465371;27;658230;-67
2023/08/22 06:59:19;;;;;;;11.23;5.50;;;24.00;99.90;;;;;;4434147;27;658778;-67
2023/08/22 07:02:06;;;;;;;7.68;4.47;;;24.30;99.90;;;;;;4473180;27;658099;-67
2023/08/22 07:04:54;;;;;;;6.57;4.20;;;24.30;99.90;;;;;;4435036;27;657650;-66
2023/08/22 07:07:41;;;;;;;6.70;4.00;;;24.20;99.90;;;;;;4452787;27;658247;-68
2023/08/22 07:10:28;;;;;;;8.68;4.45;;;24.20;99.90;;;;;;4439176;28;657718;-68
2023/08/22 07:13:16;;;;;;;9.25;4.50;;;24.30;99.90;;;;;;4458110;28;659448;-65
2023/08/22 07:16:05;;;;;;;7.90;4.38;;;24.50;99.90;;;;;;4435682;28;658100;-66
2023/08/22 07:18:52;;;;;;;9.23;4.50;;;24.60;99.90;;;;;;4451807;28;658455;-65
2023/08/22 07:21:39;;;;;;;9.50;4.43;;;24.80;99.90;;;;;;4441463;27;658863;-66
2023/08/22 07:24:26;;;;;;;8.32;4.55;;;24.70;99.90;;;;;;4464821;27;657359;-66
2023/08/22 07:27:13;;;;;;;6.32;4.30;;;24.90;99.90;;;;;;4440837;27;657775;-65
2023/08/22 07:30:01;;;;;;;13.05;4.28;;;25.20;99.90;;;;;;4461921;27;657881;-66
2023/08/22 07:32:49;;;;;;;6.53;4.25;;;25.30;99.90;;;;;;4436617;27;658781;-66
2023/08/22 07:35:37;;;;;;;7.18;4.25;;;25.50;99.90;;;;;;4456101;27;657411;-66
2023/08/22 07:38:24;;;;;;;5.43;3.85;;;25.50;99.90;;;;;;4441111;27;657730;-66
2023/08/22 07:41:11;;;;;;;8.10;4.15;;;25.50;99.90;;;;;;4464345;27;657553;-65
2023/08/22 07:43:58;;;;;;;9.82;4.40;;;25.80;99.90;;;;;;4443944;27;658658;-66
2023/08/22 07:46:45;;;;;;;9.50;4.75;;;25.90;99.90;;;;;;4460922;27;659143;-65
2023/08/22 07:49:34;;;;;;;9.38;4.60;;;26.10;99.90;;;;;;4441932;27;658015;-66
2023/08/22 07:52:22;;;;;;;7.25;4.50;;;26.40;99.90;;;;;;4458840;27;658300;-66
2023/08/22 07:55:09;;;;;;;9.18;4.32;;;26.70;99.90;;;;;;4437584;27;658523;-68
2023/08/22 07:57:56;;;;;;;9.80;4.82;;;26.90;99.90;;;;;;4460880;27;657528;-66
2023/08/22 08:00:47;;;;;;;9.20;4.50;;;27.00;99.90;;;;;;4439150;27;658646;-66
2023/08/22 08:03:35;;;;;;;14.40;5.32;;;27.10;99.90;;;;;;4439424;27;659870;-66
2023/08/22 08:06:23;;;;;;;12.68;4.93;;;27.20;99.90;;;;;;4456925;27;658830;-66
2023/08/22 08:09:11;;;;;;;10.60;4.40;;;27.20;99.90;;;;;;4436838;27;660075;-65
2023/08/22 08:11:58;;;;;;;9.32;4.68;;;26.80;99.90;;;;;;4440876;27;658479;-66
2023/08/22 08:14:46;;;;;;;11.10;5.50;;;26.80;99.90;;;;;;4455010;27;658351;-66
2023/08/22 08:17:34;;;;;;;9.20;5.67;;;27.20;99.90;;;;;;4432275;27;659334;-65
2023/08/22 08:20:21;;;;;;;9.70;5.43;;;27.60;99.90;;;;;;4459316;27;657787;-65
2023/08/22 08:23:10;;;;;;;10.52;5.80;;;27.80;99.90;;;;;;4442429;27;657679;-65
2023/08/22 08:25:57;;;;;;;12.30;5.55;;;28.00;99.90;;;;;;4434040;27;658863;-66
2023/08/22 08:28:46;;;;;;;14.63;5.80;;;28.10;99.90;;;;;;4455980;27;659391;-65
2023/08/22 08:31:33;;;;;;;8.88;6.10;;;28.40;99.90;;;;;;4431259;27;659210;-65
2023/08/22 08:34:21;;;;;;;12.02;6.05;;;28.50;99.90;;;;;;4454823;27;658693;-65
2023/08/22 08:37:08;;;;;;;9.30;6.25;;;28.80;99.90;;;;;;4431196;27;658997;-65
2023/08/22 08:39:57;;;;;;;10.10;5.97;;;28.80;99.90;;;;;;4458332;27;657799;-65
2023/08/22 08:42:44;;;;;;;9.80;6.43;;;28.90;99.90;;;;;;4440697;27;659261;-66
2023/08/22 08:45:32;;;;;;;14.45;6.10;;;28.80;99.90;;;;;;4453668;27;657792;-66
2023/08/22 08:48:19;;;;;;;8.40;6.38;;;28.90;99.90;;;;;;4437833;27;658712;-66
2023/08/22 08:51:06;;;;;;;9.25;5.78;;;29.00;99.90;;;;;;4459041;27;658046;-67
2023/08/22 08:53:54;;;;;;;14.68;6.00;;;29.10;99.90;;;;;;4439519;27;658059;-66
2023/08/22 08:56:43;;;;;;;10.40;5.43;;;29.30;99.90;;;;;;4462929;27;658718;-66
2023/08/22 08:59:30;;;;;;;8.95;5.50;;;29.50;99.90;;;;;;4437347;27;659322;-67
2023/08/22 09:02:18;;;;;;;8.63;5.47;;;29.60;99.90;;;;;;4452154;27;657492;-67
2023/08/22 09:05:05;;;;;;;7.57;5.60;;;29.50;97.30;;;;;;4460159;27;659062;-67
2023/08/22 09:07:52;;;;;;;9.40;5.47;;;29.60;99.90;;;;;;4443260;27;657849;-67
2023/08/22 09:10:40;;;;;;;10.52;5.93;;;29.90;99.90;;;;;;4463750;27;659012;-66
2023/08/22 09:13:29;;;;;;;10.80;5.38;;;30.10;97.20;;;;;;4459232;27;658542;-67
2023/08/22 09:16:17;;;;;;;8.15;5.63;;;30.10;99.30;;;;;;4456953;27;658901;-65
2023/08/22 09:19:06;;;;;;;9.63;5.47;;;29.90;97.40;;;;;;4441264;27;657492;-64
2023/08/22 09:21:59;;;;;;;8.98;5.13;;;29.10;88.60;;;;;;4435583;27;658088;-65
2023/08/22 09:24:53;;;;;;;8.63;6.10;;;29.60;97.00;;;;;;4436131;27;658811;-63
2023/08/22 09:27:40;;;;;;;10.68;5.13;;;30.10;93.40;;;;;;4434024;27;658273;-63
2023/08/22 09:30:29;;;;;;;10.88;5.20;;;30.40;94.50;;;;;;4435256;28;658500;-64
2023/08/22 09:33:16;;;;;;;8.18;5.40;;;30.80;91.00;;;;;;4454921;27;659624;-64
2023/08/22 09:36:04;;;;;;;9.60;5.57;;;30.60;88.70;;;;;;4444156;27;657226;-64
2023/08/22 09:38:52;;;;;;;11.43;6.05;;;30.70;88.60;;;;;;4455243;27;658119;-63
2023/08/22 09:41:39;;;;;;;9.02;5.60;;;30.80;87.00;;;;;;4435835;27;659614;-63
2023/08/22 09:44:27;;;;;;;15.85;5.40;;;30.80;84.10;;;;;;4451488;28;657915;-63
2023/08/22 09:47:15;;;;;;;15.43;6.03;;;30.50;81.60;;;;;;4432656;27;660162;-63
2023/08/22 09:50:05;;;;;;;10.15;5.57;;;30.60;84.30;;;;;;4430767;27;659011;-64
2023/08/22 09:52:52;;;;;;;8.43;5.88;;;30.80;86.90;;;;;;4436414;27;658878;-64
2023/08/22 09:55:40;;;;;;;14.00;5.07;;;31.30;88.30;;;;;;4453109;28;658467;-64
2023/08/22 09:58:28;;;;;;;12.23;5.50;;;31.50;73.00;;;;;;4448778;27;658962;-64
2023/08/22 10:01:16;;;;;;;12.45;5.85;;;31.50;82.30;;;;;;4446879;27;660641;-63
2023/08/22 10:04:05;;;;;;;10.20;5.60;;;31.80;74.90;;;;;;4433739;27;659762;-64
2023/08/22 10:06:53;;;;;;;9.10;5.15;;;31.90;71.30;;;;;;4436970;27;659522;-64
2023/08/22 10:09:40;;;;;;;11.27;4.80;;;32.10;73.50;;;;;;4459011;27;659354;-64
2023/08/22 10:12:27;;;;;;;7.15;4.85;;;32.00;71.90;;;;;;4451902;27;658652;-65
2023/08/22 10:15:15;;;;;;;7.93;5.13;;;32.10;66.30;;;;;;4458617;27;657852;-63
2023/08/22 10:18:03;;;;;;;9.27;4.80;;;32.10;63.90;;;;;;4439807;27;657570;-64
2023/08/22 10:20:51;;;;;;;7.30;5.00;;;32.00;67.00;;;;;;4457799;27;659322;-65
2023/08/22 10:23:58;;;;;;;11.07;5.57;;;32.40;63.30;;;;;;4442716;27;658099;-63
2023/08/22 10:26:58;;;;;;;10.48;6.10;;;31.50;65.00;;;;;;4441378;27;660307;-63
2023/08/22 10:29:46;;;;;;;8.47;5.00;;;31.40;74.10;;;;;;4430033;27;660131;-64
2023/08/22 10:32:33;;;;;;;8.70;5.03;;;31.60;72.50;;;;;;4439904;27;658118;-64
2023/08/22 10:35:24;;;;;;;11.82;5.10;;;31.60;66.90;;;;;;4455702;28;659120;-63
2023/08/22 10:38:21;;;;;;;13.18;5.40;;;31.90;68.40;;;;;;4435958;27;658742;-65
2023/08/22 10:41:08;;;;;;;7.07;4.97;;;32.00;73.40;;;;;;4413418;27;658842;-63
2023/08/22 10:43:56;;;;;;;6.97;5.60;;;32.20;68.70;;;;;;4452834;27;658289;-63
2023/08/22 10:46:59;;;;;;;7.03;5.07;;;32.40;67.90;;;;;;4430871;28;657832;-64
2023/08/22 10:49:49;;;;;;;8.55;5.10;;;32.20;67.10;;;;;;4435282;28;659004;-63
2023/08/22 10:52:37;;;;;;;9.18;5.35;;;32.20;67.00;;;;;;4437172;28;657555;-63
2023/08/22 10:55:26;;;;;;;13.05;5.10;;;32.60;64.80;;;;;;4436847;27;658922;-65
2023/08/22 10:58:40;;;;;;;5.32;4.35;;;33.10;63.00;;;;;;4432254;27;659637;-64
2023/08/22 11:01:28;;;;;;;6.70;4.88;;;33.00;58.60;;;;;;4412213;27;658221;-64
2023/08/22 11:04:15;;;;;;;17.75;5.50;;;32.70;61.20;;;;;;4452287;28;659407;-63
2023/08/22 11:07:03;;;;;;;8.30;4.80;;;32.70;67.50;;;;;;4436958;28;658479;-64
2023/08/22 11:09:50;;;;;;;10.20;5.00;;;32.60;57.30;;;;;;4454737;27;659224;-64
2023/08/22 11:12:39;;;;;;;7.57;4.95;;;32.60;61.10;;;;;;4450090;27;658647;-65
2023/08/22 11:15:26;;;;;;;7.63;4.68;;;32.80;61.40;;;;;;4451508;28;657984;-64
2023/08/22 11:18:13;;;;;;;8.77;4.72;;;32.90;62.90;;;;;;4432710;27;657531;-64
2023/08/22 11:21:01;;;;;;;6.47;4.78;;;32.60;58.80;;;;;;4458906;28;657792;-63
2023/08/22 11:23:49;;;;;;;8.20;4.60;;;32.80;59.30;;;;;;4431437;28;657420;-63
2023/08/22 11:26:36;;;;;;;10.05;4.65;;;32.60;57.90;;;;;;4453179;28;657712;-64
2023/08/22 11:29:24;;;;;;;10.55;4.68;;;32.60;61.40;;;;;;4434181;28;658755;-64
2023/08/22 11:32:21;;;;;;;9.47;5.10;;;32.70;57.50;;;;;;4451406;28;658727;-64
2023/08/22 11:35:10;;;;;;;10.00;4.70;;;32.60;58.80;;;;;;4404204;28;658464;-64
2023/08/22 11:37:58;;;;;;;7.18;4.82;;;32.10;58.80;;;;;;4435484;28;658756;-65
2023/08/22 11:40:45;;;;;;;5.70;4.68;;;32.40;59.20;;;;;;4455579;28;659549;-65
2023/08/22 11:43:33;;;;;;;10.20;5.18;;;32.40;56.70;;;;;;4449365;28;657550;-65
2023/08/22 11:46:22;;;;;;;6.22;4.22;;;32.40;55.40;;;;;;4455977;28;660115;-64
2023/08/22 11:49:09;;;;;;;9.20;4.65;;;32.90;58.30;;;;;;4431162;27;659097;-64
2023/08/22 11:51:56;;;;;;;7.03;4.53;;;33.30;56.50;;;;;;4462518;28;658860;-64
2023/08/22 11:54:44;;;;;;;8.50;4.53;;;33.40;56.90;;;;;;4433926;28;658288;-64
2023/08/22 11:57:32;;;;;;;7.25;4.45;;;32.80;52.40;;;;;;4454488;27;657501;-64
2023/08/22 12:00:19;;;;;;;6.20;4.13;;;32.90;58.60;;;;;;4435283;28;658844;-63
2023/08/22 12:03:09;;;;;;;7.75;4.50;;;33.30;55.50;;;;;;4463063;27;657530;-63
2023/08/22 12:05:57;;;;;;;6.50;4.28;;;33.50;56.10;;;;;;4431303;27;657368;-64
2023/08/22 12:08:54;;;;;;;6.20;4.07;;;33.40;52.40;;;;;;4437840;27;657300;-64
2023/08/22 12:11:41;;;;;;;6.87;4.50;;;33.00;52.80;;;;;;4435548;27;659000;-64
2023/08/22 12:14:28;;;;;;;6.93;3.75;;;33.40;55.20;;;;;;4437469;27;657391;-64
2023/08/22 12:17:16;;;;;;;5.20;3.97;;;33.70;50.40;;;;;;4460705;27;657734;-64
2023/08/22 12:20:06;;;;;;;7.28;4.55;;;33.60;49.60;;;;;;4439027;27;658324;-63
2023/08/22 12:22:53;;;;;;;11.02;4.25;;;33.50;52.10;;;;;;4442413;27;657194;-64
2023/08/22 12:25:42;;;;;;;8.98;4.30;;;33.50;52.70;;;;;;4459510;27;659142;-63
2023/08/22 12:28:29;;;;;;;5.88;4.30;;;33.30;51.00;;;;;;4436311;27;658858;-64
2023/08/22 12:31:16;;;;;;;6.80;4.40;;;33.50;52.80;;;;;;4461473;27;657260;-63
2023/08/22 12:34:03;;;;;;;6.07;4.13;;;33.30;49.30;;;;;;4442113;27;657659;-64
2023/08/22 12:36:53;;;;;;;5.07;4.20;;;33.30;50.80;;;;;;4460815;27;658860;-63
2023/08/22 12:39:40;;;;;;;8.50;4.20;;;33.30;50.60;;;;;;4438830;27;658269;-63
2023/08/22 12:42:27;;;;;;;7.90;4.45;;;33.60;54.10;;;;;;4456237;27;657899;-64
2023/08/22 12:45:15;;;;;;;6.72;4.43;;;33.60;51.40;;;;;;4460389;27;658897;-63
2023/08/22 12:48:03;;;;;;;9.13;4.97;;;34.00;51.80;;;;;;4458267;27;657795;-65
2023/08/22 12:50:50;;;;;;;8.20;4.55;;;34.20;51.70;;;;;;4461650;27;658989;-63
2023/08/22 12:53:39;;;;;;;7.72;5.00;;;34.80;51.10;;;;;;4446013;27;657820;-64
2023/08/22 12:56:27;;;;;;;10.80;4.78;;;34.90;49.10;;;;;;4459358;27;657750;-64
2023/08/22 12:59:14;;;;;;;6.03;4.82;;;34.90;49.80;;;;;;4437845;27;659517;-64
2023/08/22 13:02:01;;;;;;;8.57;4.60;;;35.10;48.00;;;;;;4460185;27;657648;-64
2023/08/22 13:04:49;;;;;;;10.85;5.50;;;35.20;48.60;;;;;;4441985;27;658157;-64
2023/08/22 13:07:36;;;;;;;8.73;4.80;;;35.10;47.00;;;;;;4458667;27;658698;-64
2023/08/22 13:10:25;;;;;;;6.70;4.20;;;34.80;48.40;;;;;;4442646;27;657378;-63
2023/08/22 13:13:12;;;;;;;5.85;4.15;;;35.30;49.30;;;;;;4450812;27;657613;-64
2023/08/22 13:16:00;;;;;;;5.85;4.57;;;35.80;48.50;;;;;;4464958;27;658757;-63
2023/08/22 13:18:47;;;;;;;9.10;4.55;;;36.20;47.40;;;;;;4463401;27;659055;-64
2023/08/22 13:21:35;;;;;;;6.15;4.20;;;36.20;47.40;;;;;;4459002;27;658386;-63
2023/08/22 13:24:23;;;;;;;7.40;4.13;;;35.90;46.60;;;;;;4459327;27;657767;-64
2023/08/22 13:27:11;;;;;;;10.35;4.47;;;35.60;49.30;;;;;;4459562;27;658732;-63
2023/08/22 13:29:58;;;;;;;6.13;4.20;;;35.30;48.40;;;;;;4435603;27;658974;-63
2023/08/22 13:32:45;;;;;;;11.07;4.63;;;35.10;47.30;;;;;;4455801;27;658994;-63
2023/08/22 13:35:33;;;;;;;8.90;4.30;;;35.20;50.50;;;;;;4432759;27;659438;-64
2023/08/22 13:38:20;;;;;;;11.70;4.80;;;34.60;48.40;;;;;;4460055;27;659647;-63
2023/08/22 13:41:07;;;;;;;8.63;4.25;;;34.60;50.40;;;;;;4446122;27;659048;-64
2023/08/22 13:43:56;;;;;;;10.98;4.38;;;34.70;50.50;;;;;;4461969;27;658797;-64
2023/08/22 13:46:43;;;;;;;7.65;4.65;;;34.80;49.30;;;;;;4440168;27;660217;-63
2023/08/22 13:49:31;;;;;;;10.80;4.70;;;34.50;49.40;;;;;;4460756;27;659271;-63
2023/08/22 13:52:18;;;;;;;8.65;4.40;;;34.30;50.50;;;;;;4438773;27;658692;-63
2023/08/22 13:55:06;;;;;;;11.10;4.45;;;34.00;50.40;;;;;;4456880;27;659597;-63
2023/08/22 13:57:54;;;;;;;6.97;4.57;;;33.80;50.20;;;;;;4441534;27;660149;-63
2023/08/22 14:00:42;;;;;;;8.77;4.50;;;33.90;50.10;;;;;;4459257;27;658642;-63
2023/08/22 14:03:30;;;;;;;10.00;5.40;;;34.00;53.50;;;;;;4437212;27;658866;-65
2023/08/22 14:06:17;;;;;;;7.25;4.70;;;33.90;52.90;;;;;;4453426;27;658545;-64
2023/08/22 14:09:05;;;;;;;8.93;4.85;;;33.70;51.30;;;;;;4460684;27;658874;-63
2023/08/22 14:11:53;;;;;;;6.55;4.93;;;33.40;50.90;;;;;;4457522;28;658459;-64
2023/08/22 14:14:40;;;;;;;9.05;4.60;;;33.20;50.50;;;;;;4458027;27;658487;-63
2023/08/22 14:17:29;;;;;;;9.77;4.72;;;33.00;57.40;;;;;;4452227;27;657756;-64
2023/08/22 14:20:16;;;;;;;8.20;4.60;;;32.70;57.30;;;;;;4456021;27;657944;-64